sensor_id;sensor_type;location;lat;lon;timestamp;P1;durP1;ratioP1;P2;durP2;ratioP2
72720;SDS011;60835;50.974;10.322;2023-02-28T00:01:23;5.45;;;3.65;;
72720;SDS011;60835;50.974;10.322;2023-02-28T00:03:50;6.65;;;3.92;;
72720;SDS011;60835;50.974;10.322;2023-02-28T00:06:16;12.93;;;3.72;;
72720;SDS011;60835;50.974;10.322;2023-02-28T00:08:43;6.57;;;4.00;;
72720;SDS011;60835;50.974;10.322;2023-02-28T00:11:10;6.40;;;3.75;;
72720;SDS011;60835;50.974;10.322;2023-02-28T00:13:40;5.07;;;3.58;;
72720;SDS011;60835;50.974;10.322;2023-02-28T00:16:09;6.25;;;3.53;;
72720;SDS011;60835;50.974;10.322;2023-02-28T00:18:44;5.40;;;3.28;;
72720;SDS011;60835;50.974;10.322;2023-02-28T00:21:10;6.68;;;3.88;;
72720;SDS011;60835;50.974;10.322;2023-02-28T00:23:37;6.97;;;3.88;;
72720;SDS011;60835;50.974;10.322;2023-02-28T00:26:04;5.95;;;3.97;;
72720;SDS011;60835;50.974;10.322;2023-02-28T00:28:30;5.97;;;3.70;;
72720;SDS011;60835;50.974;10.322;2023-02-28T00:30:57;7.57;;;3.85;;
72720;SDS011;60835;50.974;10.322;2023-02-28T00:33:24;6.13;;;3.75;;
72720;SDS011;60835;50.974;10.322;2023-02-28T00:35:50;8.68;;;3.63;;
72720;SDS011;60835;50.974;10.322;2023-02-28T00:38:16;6.22;;;3.90;;
72720;SDS011;60835;50.974;10.322;2023-02-28T00:40:43;7.95;;;3.70;;
72720;SDS011;60835;50.974;10.322;2023-02-28T00:43:09;7.47;;;3.58;;
72720;SDS011;60835;50.974;10.322;2023-02-28T00:45:41;6.80;;;3.55;;
72720;SDS011;60835;50.974;10.322;2023-02-28T00:48:08;8.50;;;3.95;;
72720;SDS011;60835;50.974;10.322;2023-02-28T00:50:34;5.32;;;3.42;;
72720;SDS011;60835;50.974;10.322;2023-02-28T00:53:01;6.55;;;3.90;;
72720;SDS011;60835;50.974;10.322;2023-02-28T00:55:27;5.85;;;3.80;;
72720;SDS011;60835;50.974;10.322;2023-02-28T00:57:54;7.00;;;4.10;;
72720;SDS011;60835;50.974;10.322;2023-02-28T01:00:20;5.57;;;3.40;;
72720;SDS011;60835;50.974;10.322;2023-02-28T01:02:47;6.63;;;3.42;;
72720;SDS011;60835;50.974;10.322;2023-02-28T01:05:13;6.13;;;2.95;;
72720;SDS011;60835;50.974;10.322;2023-02-28T01:07:40;6.57;;;3.63;;
72720;SDS011;60835;50.974;10.322;2023-02-28T01:10:06;6.00;;;3.47;;
72720;SDS011;60835;50.974;10.322;2023-02-28T01:12:34;6.20;;;3.72;;
72720;SDS011;60835;50.974;10.322;2023-02-28T01:15:00;6.95;;;3.53;;
72720;SDS011;60835;50.974;10.322;2023-02-28T01:17:26;10.27;;;4.43;;
72720;SDS011;60835;50.974;10.322;2023-02-28T01:19:54;9.38;;;4.55;;
72720;SDS011;60835;50.974;10.322;2023-02-28T01:22:22;8.75;;;4.68;;
72720;SDS011;60835;50.974;10.322;2023-02-28T01:24:49;7.88;;;4.57;;
72720;SDS011;60835;50.974;10.322;2023-02-28T01:27:16;7.30;;;4.40;;
72720;SDS011;60835;50.974;10.322;2023-02-28T01:29:42;8.80;;;4.70;;
72720;SDS011;60835;50.974;10.322;2023-02-28T01:32:09;14.40;;;4.95;;
72720;SDS011;60835;50.974;10.322;2023-02-28T01:34:35;9.02;;;4.80;;
72720;SDS011;60835;50.974;10.322;2023-02-28T01:37:01;9.57;;;4.40;;
72720;SDS011;60835;50.974;10.322;2023-02-28T01:39:29;9.15;;;4.10;;
72720;SDS011;60835;50.974;10.322;2023-02-28T01:41:56;7.45;;;3.95;;
72720;SDS011;60835;50.974;10.322;2023-02-28T01:47:34;14.15;;;4.90;;
72720;SDS011;60835;50.974;10.322;2023-02-28T01:50:06;6.57;;;4.30;;
72720;SDS011;60835;50.974;10.322;2023-02-28T01:52:35;9.30;;;4.40;;
72720;SDS011;60835;50.974;10.322;2023-02-28T01:55:02;8.25;;;4.53;;
72720;SDS011;60835;50.974;10.322;2023-02-28T01:57:35;9.25;;;4.38;;
72720;SDS011;60835;50.974;10.322;2023-02-28T02:00:10;7.90;;;4.40;;
72720;SDS011;60835;50.974;10.322;2023-02-28T02:02:44;10.30;;;4.60;;
72720;SDS011;60835;50.974;10.322;2023-02-28T02:07:45;11.70;;;4.72;;
72720;SDS011;60835;50.974;10.322;2023-02-28T02:10:16;10.18;;;4.75;;
72720;SDS011;60835;50.974;10.322;2023-02-28T02:27:24;7.07;;;4.30;;
72720;SDS011;60835;50.974;10.322;2023-02-28T02:38:31;8.63;;;4.28;;
72720;SDS011;60835;50.974;10.322;2023-02-28T02:41:11;8.23;;;4.50;;
72720;SDS011;60835;50.974;10.322;2023-02-28T02:43:53;8.98;;;3.97;;
72720;SDS011;60835;50.974;10.322;2023-02-28T02:46:29;7.65;;;4.20;;
72720;SDS011;60835;50.974;10.322;2023-02-28T02:49:00;6.40;;;4.03;;
72720;SDS011;60835;50.974;10.322;2023-02-28T02:51:32;5.50;;;3.70;;
72720;SDS011;60835;50.974;10.322;2023-02-28T02:54:02;7.88;;;3.70;;
72720;SDS011;60835;50.974;10.322;2023-02-28T02:56:48;6.88;;;3.88;;
72720;SDS011;60835;50.974;10.322;2023-02-28T02:59:18;10.38;;;4.78;;
72720;SDS011;60835;50.974;10.322;2023-02-28T03:01:49;6.40;;;4.05;;
72720;SDS011;60835;50.974;10.322;2023-02-28T03:04:19;5.90;;;3.88;;
72720;SDS011;60835;50.974;10.322;2023-02-28T03:06:48;5.43;;;3.50;;
72720;SDS011;60835;50.974;10.322;2023-02-28T03:09:16;6.63;;;3.78;;
72720;SDS011;60835;50.974;10.322;2023-02-28T03:11:42;6.55;;;3.15;;
72720;SDS011;60835;50.974;10.322;2023-02-28T03:14:22;5.22;;;3.50;;
72720;SDS011;60835;50.974;10.322;2023-02-28T03:17:00;7.75;;;3.40;;
72720;SDS011;60835;50.974;10.322;2023-02-28T03:22:14;9.60;;;3.55;;
72720;SDS011;60835;50.974;10.322;2023-02-28T03:25:05;4.72;;;2.85;;
72720;SDS011;60835;50.974;10.322;2023-02-28T03:28:03;6.53;;;3.08;;
72720;SDS011;60835;50.974;10.322;2023-02-28T03:30:55;5.00;;;3.00;;
72720;SDS011;60835;50.974;10.322;2023-02-28T03:34:09;6.90;;;2.92;;
72720;SDS011;60835;50.974;10.322;2023-02-28T03:36:23;7.00;;;3.00;;
72720;SDS011;60835;50.974;10.322;2023-02-28T03:38:54;5.18;;;3.10;;
72720;SDS011;60835;50.974;10.322;2023-02-28T03:41:31;5.03;;;2.78;;
72720;SDS011;60835;50.974;10.322;2023-02-28T03:44:07;6.60;;;2.95;;
72720;SDS011;60835;50.974;10.322;2023-02-28T03:46:46;6.13;;;3.30;;
72720;SDS011;60835;50.974;10.322;2023-02-28T03:49:30;8.82;;;2.90;;
72720;SDS011;60835;50.974;10.322;2023-02-28T03:52:00;5.65;;;3.10;;
72720;SDS011;60835;50.974;10.322;2023-02-28T03:54:32;5.25;;;3.00;;
72720;SDS011;60835;50.974;10.322;2023-02-28T04:02:37;6.00;;;3.28;;
72720;SDS011;60835;50.974;10.322;2023-02-28T04:05:06;5.35;;;2.22;;
72720;SDS011;60835;50.974;10.322;2023-02-28T04:07:33;6.25;;;3.15;;
72720;SDS011;60835;50.974;10.322;2023-02-28T04:10:00;3.83;;;2.65;;
72720;SDS011;60835;50.974;10.322;2023-02-28T04:12:26;5.38;;;2.67;;
72720;SDS011;60835;50.974;10.322;2023-02-28T04:14:53;5.85;;;2.92;;
72720;SDS011;60835;50.974;10.322;2023-02-28T04:17:19;4.13;;;2.92;;
72720;SDS011;60835;50.974;10.322;2023-02-28T04:19:46;4.72;;;2.63;;
72720;SDS011;60835;50.974;10.322;2023-02-28T04:22:12;5.07;;;2.75;;
72720;SDS011;60835;50.974;10.322;2023-02-28T04:24:39;4.05;;;2.63;;
72720;SDS011;60835;50.974;10.322;2023-02-28T04:27:09;4.57;;;2.88;;
72720;SDS011;60835;50.974;10.322;2023-02-28T04:29:36;5.65;;;2.97;;
72720;SDS011;60835;50.974;10.322;2023-02-28T04:32:02;4.97;;;2.90;;
72720;SDS011;60835;50.974;10.322;2023-02-28T04:34:30;6.60;;;3.25;;
72720;SDS011;60835;50.974;10.322;2023-02-28T04:36:58;6.22;;;3.28;;
72720;SDS011;60835;50.974;10.322;2023-02-28T04:39:40;8.25;;;2.88;;
72720;SDS011;60835;50.974;10.322;2023-02-28T04:42:07;8.32;;;3.25;;
72720;SDS011;60835;50.974;10.322;2023-02-28T04:44:34;5.82;;;3.20;;
72720;SDS011;60835;50.974;10.322;2023-02-28T04:47:00;6.75;;;3.03;;
72720;SDS011;60835;50.974;10.322;2023-02-28T04:49:27;5.80;;;3.28;;
72720;SDS011;60835;50.974;10.322;2023-02-28T04:51:53;9.18;;;3.78;;
72720;SDS011;60835;50.974;10.322;2023-02-28T04:54:20;7.25;;;3.25;;
72720;SDS011;60835;50.974;10.322;2023-02-28T04:56:46;8.45;;;3.17;;
72720;SDS011;60835;50.974;10.322;2023-02-28T04:59:15;6.05;;;3.35;;
72720;SDS011;60835;50.974;10.322;2023-02-28T05:01:44;6.75;;;3.10;;
72720;SDS011;60835;50.974;10.322;2023-02-28T05:04:13;11.95;;;3.65;;
72720;SDS011;60835;50.974;10.322;2023-02-28T05:06:39;14.18;;;3.65;;
72720;SDS011;60835;50.974;10.322;2023-02-28T05:09:06;8.73;;;3.70;;
72720;SDS011;60835;50.974;10.322;2023-02-28T05:11:33;9.00;;;3.47;;
72720;SDS011;60835;50.974;10.322;2023-02-28T05:14:05;7.60;;;3.70;;
72720;SDS011;60835;50.974;10.322;2023-02-28T05:16:41;6.05;;;3.67;;
72720;SDS011;60835;50.974;10.322;2023-02-28T05:19:07;5.45;;;3.17;;
72720;SDS011;60835;50.974;10.322;2023-02-28T05:21:35;8.25;;;3.45;;
72720;SDS011;60835;50.974;10.322;2023-02-28T05:24:04;5.15;;;2.85;;
72720;SDS011;60835;50.974;10.322;2023-02-28T05:26:36;5.28;;;3.00;;
72720;SDS011;60835;50.974;10.322;2023-02-28T05:29:05;5.68;;;3.33;;
72720;SDS011;60835;50.974;10.322;2023-02-28T05:31:32;9.20;;;3.65;;
72720;SDS011;60835;50.974;10.322;2023-02-28T05:33:59;3.83;;;2.60;;
72720;SDS011;60835;50.974;10.322;2023-02-28T05:36:26;9.45;;;3.17;;
72720;SDS011;60835;50.974;10.322;2023-02-28T05:38:52;4.95;;;2.60;;
72720;SDS011;60835;50.974;10.322;2023-02-28T05:41:19;7.28;;;3.13;;
72720;SDS011;60835;50.974;10.322;2023-02-28T05:43:46;6.55;;;2.78;;
72720;SDS011;60835;50.974;10.322;2023-02-28T05:46:13;7.18;;;3.22;;
72720;SDS011;60835;50.974;10.322;2023-02-28T05:48:41;6.32;;;3.10;;
72720;SDS011;60835;50.974;10.322;2023-02-28T05:51:08;5.72;;;2.63;;
72720;SDS011;60835;50.974;10.322;2023-02-28T05:53:35;3.83;;;2.67;;
72720;SDS011;60835;50.974;10.322;2023-02-28T05:56:02;17.85;;;9.25;;
72720;SDS011;60835;50.974;10.322;2023-02-28T05:58:30;21.60;;;11.75;;
72720;SDS011;60835;50.974;10.322;2023-02-28T06:00:57;23.73;;;12.35;;
72720;SDS011;60835;50.974;10.322;2023-02-28T06:03:25;17.95;;;8.90;;
72720;SDS011;60835;50.974;10.322;2023-02-28T06:05:52;12.60;;;5.85;;
72720;SDS011;60835;50.974;10.322;2023-02-28T06:08:19;9.27;;;4.25;;
72720;SDS011;60835;50.974;10.322;2023-02-28T06:10:45;7.60;;;4.00;;
72720;SDS011;60835;50.974;10.322;2023-02-28T06:13:12;9.40;;;4.28;;
72720;SDS011;60835;50.974;10.322;2023-02-28T06:15:39;8.95;;;3.15;;
72720;SDS011;60835;50.974;10.322;2023-02-28T06:18:06;6.75;;;3.70;;
72720;SDS011;60835;50.974;10.322;2023-02-28T06:20:32;5.43;;;3.08;;
72720;SDS011;60835;50.974;10.322;2023-02-28T06:22:59;6.47;;;3.13;;
72720;SDS011;60835;50.974;10.322;2023-02-28T06:25:26;10.65;;;3.33;;
72720;SDS011;60835;50.974;10.322;2023-02-28T06:27:54;9.55;;;3.13;;
72720;SDS011;60835;50.974;10.322;2023-02-28T06:30:21;7.35;;;3.65;;
72720;SDS011;60835;50.974;10.322;2023-02-28T06:32:53;6.95;;;3.45;;
72720;SDS011;60835;50.974;10.322;2023-02-28T06:35:20;5.70;;;2.88;;
72720;SDS011;60835;50.974;10.322;2023-02-28T06:37:49;7.35;;;3.17;;
72720;SDS011;60835;50.974;10.322;2023-02-28T06:40:15;6.50;;;3.55;;
72720;SDS011;60835;50.974;10.322;2023-02-28T06:42:42;4.60;;;2.92;;
72720;SDS011;60835;50.974;10.322;2023-02-28T06:45:09;13.82;;;3.65;;
72720;SDS011;60835;50.974;10.322;2023-02-28T06:47:38;7.53;;;3.72;;
72720;SDS011;60835;50.974;10.322;2023-02-28T06:50:07;5.03;;;3.05;;
72720;SDS011;60835;50.974;10.322;2023-02-28T06:52:35;8.77;;;3.75;;
72720;SDS011;60835;50.974;10.322;2023-02-28T06:55:04;8.55;;;3.60;;
72720;SDS011;60835;50.974;10.322;2023-02-28T06:57:32;9.48;;;3.33;;
72720;SDS011;60835;50.974;10.322;2023-02-28T06:59:59;9.15;;;3.97;;
72720;SDS011;60835;50.974;10.322;2023-02-28T07:02:27;6.18;;;3.22;;
72720;SDS011;60835;50.974;10.322;2023-02-28T07:04:54;10.70;;;3.85;;
72720;SDS011;60835;50.974;10.322;2023-02-28T07:07:20;8.27;;;3.42;;
72720;SDS011;60835;50.974;10.322;2023-02-28T07:09:47;6.55;;;3.50;;
72720;SDS011;60835;50.974;10.322;2023-02-28T07:12:13;8.98;;;3.20;;
72720;SDS011;60835;50.974;10.322;2023-02-28T07:14:40;5.20;;;3.20;;
72720;SDS011;60835;50.974;10.322;2023-02-28T07:17:07;6.60;;;3.13;;
72720;SDS011;60835;50.974;10.322;2023-02-28T07:19:34;8.38;;;3.17;;
72720;SDS011;60835;50.974;10.322;2023-02-28T07:22:01;6.85;;;3.30;;
72720;SDS011;60835;50.974;10.322;2023-02-28T07:24:28;6.80;;;3.00;;
72720;SDS011;60835;50.974;10.322;2023-02-28T07:26:55;4.50;;;2.80;;
72720;SDS011;60835;50.974;10.322;2023-02-28T07:29:22;4.97;;;2.95;;
72720;SDS011;60835;50.974;10.322;2023-02-28T07:31:52;7.70;;;3.35;;
72720;SDS011;60835;50.974;10.322;2023-02-28T07:34:19;9.95;;;3.47;;
72720;SDS011;60835;50.974;10.322;2023-02-28T07:36:51;9.13;;;3.53;;
72720;SDS011;60835;50.974;10.322;2023-02-28T07:39:20;7.75;;;3.40;;
72720;SDS011;60835;50.974;10.322;2023-02-28T07:41:47;10.02;;;3.33;;
72720;SDS011;60835;50.974;10.322;2023-02-28T07:44:14;8.65;;;3.47;;
72720;SDS011;60835;50.974;10.322;2023-02-28T07:46:40;6.20;;;3.50;;
72720;SDS011;60835;50.974;10.322;2023-02-28T07:49:06;6.65;;;3.13;;
72720;SDS011;60835;50.974;10.322;2023-02-28T07:51:33;8.93;;;3.97;;
72720;SDS011;60835;50.974;10.322;2023-02-28T07:53:59;5.32;;;3.13;;
72720;SDS011;60835;50.974;10.322;2023-02-28T07:56:26;8.73;;;3.60;;
72720;SDS011;60835;50.974;10.322;2023-02-28T07:58:57;7.57;;;3.42;;
72720;SDS011;60835;50.974;10.322;2023-02-28T08:01:23;11.45;;;3.42;;
72720;SDS011;60835;50.974;10.322;2023-02-28T08:03:50;7.18;;;3.45;;
72720;SDS011;60835;50.974;10.322;2023-02-28T08:06:19;5.18;;;3.25;;
72720;SDS011;60835;50.974;10.322;2023-02-28T08:08:48;7.68;;;3.28;;
72720;SDS011;60835;50.974;10.322;2023-02-28T08:11:15;9.05;;;3.78;;
72720;SDS011;60835;50.974;10.322;2023-02-28T08:13:43;7.95;;;3.80;;
72720;SDS011;60835;50.974;10.322;2023-02-28T08:16:11;5.53;;;3.60;;
72720;SDS011;60835;50.974;10.322;2023-02-28T08:18:43;11.48;;;4.13;;
72720;SDS011;60835;50.974;10.322;2023-02-28T08:21:10;10.68;;;4.00;;
72720;SDS011;60835;50.974;10.322;2023-02-28T08:23:39;8.10;;;4.00;;
72720;SDS011;60835;50.974;10.322;2023-02-28T08:26:09;9.00;;;3.60;;
72720;SDS011;60835;50.974;10.322;2023-02-28T08:28:38;11.23;;;4.20;;
72720;SDS011;60835;50.974;10.322;2023-02-28T08:31:10;7.25;;;3.83;;
72720;SDS011;60835;50.974;10.322;2023-02-28T08:33:43;11.27;;;3.95;;
72720;SDS011;60835;50.974;10.322;2023-02-28T08:36:10;9.88;;;3.90;;
72720;SDS011;60835;50.974;10.322;2023-02-28T08:38:37;5.88;;;3.95;;
72720;SDS011;60835;50.974;10.322;2023-02-28T08:41:07;10.30;;;4.22;;
72720;SDS011;60835;50.974;10.322;2023-02-28T08:43:35;6.72;;;3.80;;
72720;SDS011;60835;50.974;10.322;2023-02-28T08:46:03;8.10;;;3.97;;
72720;SDS011;60835;50.974;10.322;2023-02-28T08:48:31;9.88;;;4.10;;
72720;SDS011;60835;50.974;10.322;2023-02-28T08:50:59;7.00;;;3.67;;
72720;SDS011;60835;50.974;10.322;2023-02-28T08:53:33;6.20;;;3.70;;
72720;SDS011;60835;50.974;10.322;2023-02-28T08:56:00;6.18;;;3.65;;
72720;SDS011;60835;50.974;10.322;2023-02-28T08:58:32;5.30;;;3.03;;
72720;SDS011;60835;50.974;10.322;2023-02-28T09:01:00;5.55;;;3.65;;
72720;SDS011;60835;50.974;10.322;2023-02-28T09:03:33;6.22;;;4.00;;
72720;SDS011;60835;50.974;10.322;2023-02-28T09:06:00;6.68;;;3.97;;
72720;SDS011;60835;50.974;10.322;2023-02-28T09:08:27;7.32;;;3.78;;
72720;SDS011;60835;50.974;10.322;2023-02-28T09:10:57;7.75;;;3.92;;
72720;SDS011;60835;50.974;10.322;2023-02-28T09:13:26;5.53;;;3.28;;
72720;SDS011;60835;50.974;10.322;2023-02-28T09:15:53;8.70;;;3.95;;
72720;SDS011;60835;50.974;10.322;2023-02-28T09:18:20;5.65;;;3.80;;
72720;SDS011;60835;50.974;10.322;2023-02-28T09:20:47;5.25;;;3.72;;
72720;SDS011;60835;50.974;10.322;2023-02-28T09:23:13;5.68;;;3.30;;
72720;SDS011;60835;50.974;10.322;2023-02-28T09:25:47;5.32;;;3.35;;
72720;SDS011;60835;50.974;10.322;2023-02-28T09:28:15;6.15;;;3.80;;
72720;SDS011;60835;50.974;10.322;2023-02-28T09:30:46;7.32;;;3.72;;
72720;SDS011;60835;50.974;10.322;2023-02-28T09:33:15;3.80;;;3.10;;
72720;SDS011;60835;50.974;10.322;2023-02-28T09:35:43;5.80;;;3.58;;
72720;SDS011;60835;50.974;10.322;2023-02-28T09:38:18;6.60;;;3.58;;
72720;SDS011;60835;50.974;10.322;2023-02-28T09:40:47;5.63;;;3.20;;
72720;SDS011;60835;50.974;10.322;2023-02-28T09:43:17;5.18;;;3.55;;
72720;SDS011;60835;50.974;10.322;2023-02-28T09:46:48;8.70;;;3.50;;
72720;SDS011;60835;50.974;10.322;2023-02-28T09:48:58;6.65;;;4.32;;
72720;SDS011;60835;50.974;10.322;2023-02-28T09:54:18;6.28;;;3.67;;
72720;SDS011;60835;50.974;10.322;2023-02-28T09:59:44;5.28;;;3.30;;
72720;SDS011;60835;50.974;10.322;2023-02-28T10:05:11;5.28;;;3.40;;
72720;SDS011;60835;50.974;10.322;2023-02-28T10:07:50;6.22;;;3.95;;
72720;SDS011;60835;50.974;10.322;2023-02-28T10:15:58;5.15;;;3.55;;
72720;SDS011;60835;50.974;10.322;2023-02-28T10:18:38;6.57;;;3.53;;
72720;SDS011;60835;50.974;10.322;2023-02-28T10:21:17;11.82;;;4.55;;
72720;SDS011;60835;50.974;10.322;2023-02-28T10:23:59;7.80;;;3.90;;
72720;SDS011;60835;50.974;10.322;2023-02-28T10:26:31;6.18;;;3.67;;
72720;SDS011;60835;50.974;10.322;2023-02-28T10:28:59;7.43;;;3.63;;
72720;SDS011;60835;50.974;10.322;2023-02-28T10:31:26;8.10;;;4.28;;
72720;SDS011;60835;50.974;10.322;2023-02-28T10:33:52;6.47;;;3.88;;
72720;SDS011;60835;50.974;10.322;2023-02-28T10:36:20;7.15;;;3.90;;
72720;SDS011;60835;50.974;10.322;2023-02-28T10:38:47;8.18;;;3.72;;
72720;SDS011;60835;50.974;10.322;2023-02-28T10:41:15;4.78;;;2.80;;
72720;SDS011;60835;50.974;10.322;2023-02-28T10:43:52;7.32;;;3.20;;
72720;SDS011;60835;50.974;10.322;2023-02-28T10:46:19;8.60;;;4.03;;
72720;SDS011;60835;50.974;10.322;2023-02-28T10:49:05;6.32;;;3.90;;
72720;SDS011;60835;50.974;10.322;2023-02-28T10:51:39;8.02;;;3.95;;
72720;SDS011;60835;50.974;10.322;2023-02-28T10:54:17;6.43;;;3.35;;
72720;SDS011;60835;50.974;10.322;2023-02-28T10:59:44;5.85;;;3.47;;
72720;SDS011;60835;50.974;10.322;2023-02-28T11:02:33;5.43;;;3.47;;
72720;SDS011;60835;50.974;10.322;2023-02-28T11:05:01;6.50;;;3.63;;
72720;SDS011;60835;50.974;10.322;2023-02-28T11:07:28;5.43;;;4.05;;
72720;SDS011;60835;50.974;10.322;2023-02-28T11:10:06;8.75;;;4.38;;
72720;SDS011;60835;50.974;10.322;2023-02-28T11:12:46;5.35;;;3.25;;
72720;SDS011;60835;50.974;10.322;2023-02-28T11:17:57;8.60;;;3.92;;
72720;SDS011;60835;50.974;10.322;2023-02-28T11:20:25;7.45;;;3.47;;
72720;SDS011;60835;50.974;10.322;2023-02-28T11:22:54;5.63;;;3.42;;
72720;SDS011;60835;50.974;10.322;2023-02-28T11:25:32;4.75;;;3.35;;
72720;SDS011;60835;50.974;10.322;2023-02-28T11:28:01;6.45;;;3.35;;
72720;SDS011;60835;50.974;10.322;2023-02-28T11:30:39;7.13;;;4.10;;
72720;SDS011;60835;50.974;10.322;2023-02-28T11:35:57;8.15;;;3.33;;
72720;SDS011;60835;50.974;10.322;2023-02-28T11:38:28;6.10;;;3.60;;
72720;SDS011;60835;50.974;10.322;2023-02-28T11:46:36;7.35;;;3.47;;
72720;SDS011;60835;50.974;10.322;2023-02-28T11:52:36;6.63;;;4.00;;
72720;SDS011;60835;50.974;10.322;2023-02-28T12:00:38;5.43;;;3.63;;
72720;SDS011;60835;50.974;10.322;2023-02-28T12:03:31;9.38;;;3.95;;
72720;SDS011;60835;50.974;10.322;2023-02-28T12:12:13;4.78;;;3.33;;
72720;SDS011;60835;50.974;10.322;2023-02-28T12:15:13;7.32;;;4.15;;
72720;SDS011;60835;50.974;10.322;2023-02-28T12:20:38;7.15;;;3.78;;
72720;SDS011;60835;50.974;10.322;2023-02-28T12:23:29;7.97;;;3.97;;
72720;SDS011;60835;50.974;10.322;2023-02-28T12:29:01;8.57;;;4.07;;
72720;SDS011;60835;50.974;10.322;2023-02-28T12:31:40;6.03;;;3.70;;
72720;SDS011;60835;50.974;10.322;2023-02-28T12:34:13;8.05;;;4.25;;
72720;SDS011;60835;50.974;10.322;2023-02-28T12:36:49;7.70;;;4.00;;
72720;SDS011;60835;50.974;10.322;2023-02-28T12:39:24;5.95;;;4.30;;
72720;SDS011;60835;50.974;10.322;2023-02-28T12:42:10;8.70;;;4.13;;
72720;SDS011;60835;50.974;10.322;2023-02-28T12:44:48;7.10;;;3.60;;
72720;SDS011;60835;50.974;10.322;2023-02-28T12:47:19;6.32;;;4.25;;
72720;SDS011;60835;50.974;10.322;2023-02-28T12:52:19;8.75;;;4.30;;
72720;SDS011;60835;50.974;10.322;2023-02-28T12:55:26;6.40;;;3.65;;
72720;SDS011;60835;50.974;10.322;2023-02-28T12:58:11;5.60;;;3.75;;
72720;SDS011;60835;50.974;10.322;2023-02-28T13:00:46;6.80;;;3.97;;
72720;SDS011;60835;50.974;10.322;2023-02-28T13:03:39;7.03;;;4.45;;
72720;SDS011;60835;50.974;10.322;2023-02-28T13:06:36;11.90;;;4.50;;
72720;SDS011;60835;50.974;10.322;2023-02-28T13:09:12;6.28;;;3.80;;
72720;SDS011;60835;50.974;10.322;2023-02-28T13:11:48;5.38;;;3.67;;
72720;SDS011;60835;50.974;10.322;2023-02-28T13:16:51;7.22;;;3.97;;
72720;SDS011;60835;50.974;10.322;2023-02-28T13:19:24;6.20;;;3.90;;
72720;SDS011;60835;50.974;10.322;2023-02-28T13:21:52;6.03;;;3.80;;
72720;SDS011;60835;50.974;10.322;2023-02-28T13:29:42;5.97;;;3.95;;
72720;SDS011;60835;50.974;10.322;2023-02-28T13:34:37;6.07;;;4.28;;
72720;SDS011;60835;50.974;10.322;2023-02-28T13:39:45;11.20;;;4.60;;
72720;SDS011;60835;50.974;10.322;2023-02-28T13:47:30;6.50;;;3.55;;
72720;SDS011;60835;50.974;10.322;2023-02-28T13:50:28;7.80;;;4.72;;
72720;SDS011;60835;50.974;10.322;2023-02-28T13:55:46;8.68;;;5.03;;
72720;SDS011;60835;50.974;10.322;2023-02-28T13:58:34;8.13;;;4.97;;
72720;SDS011;60835;50.974;10.322;2023-02-28T14:01:13;9.68;;;4.72;;
72720;SDS011;60835;50.974;10.322;2023-02-28T14:04:36;9.05;;;4.32;;
72720;SDS011;60835;50.974;10.322;2023-02-28T14:07:46;9.65;;;5.97;;
72720;SDS011;60835;50.974;10.322;2023-02-28T14:10:33;8.98;;;4.95;;
72720;SDS011;60835;50.974;10.322;2023-02-28T14:13:11;8.35;;;5.20;;
72720;SDS011;60835;50.974;10.322;2023-02-28T14:15:40;6.88;;;4.63;;
72720;SDS011;60835;50.974;10.322;2023-02-28T14:18:27;13.23;;;4.95;;
72720;SDS011;60835;50.974;10.322;2023-02-28T14:26:03;9.07;;;4.97;;
72720;SDS011;60835;50.974;10.322;2023-02-28T14:28:49;9.77;;;5.50;;
72720;SDS011;60835;50.974;10.322;2023-02-28T14:31:22;9.20;;;4.53;;
72720;SDS011;60835;50.974;10.322;2023-02-28T14:36:46;10.85;;;5.45;;
72720;SDS011;60835;50.974;10.322;2023-02-28T14:39:16;8.68;;;5.15;;
72720;SDS011;60835;50.974;10.322;2023-02-28T14:41:45;12.45;;;4.72;;
72720;SDS011;60835;50.974;10.322;2023-02-28T14:44:14;10.95;;;4.80;;
72720;SDS011;60835;50.974;10.322;2023-02-28T14:46:44;12.05;;;5.60;;
72720;SDS011;60835;50.974;10.322;2023-02-28T14:49:15;10.63;;;5.60;;
72720;SDS011;60835;50.974;10.322;2023-02-28T14:54:38;9.88;;;5.93;;
72720;SDS011;60835;50.974;10.322;2023-02-28T14:57:06;10.05;;;5.80;;
72720;SDS011;60835;50.974;10.322;2023-02-28T15:02:49;15.45;;;6.57;;
72720;SDS011;60835;50.974;10.322;2023-02-28T15:05:21;13.25;;;5.85;;
72720;SDS011;60835;50.974;10.322;2023-02-28T15:08:00;12.38;;;7.07;;
72720;SDS011;60835;50.974;10.322;2023-02-28T15:10:29;11.13;;;7.07;;
72720;SDS011;60835;50.974;10.322;2023-02-28T15:13:13;13.07;;;5.80;;
72720;SDS011;60835;50.974;10.322;2023-02-28T15:15:42;15.20;;;6.32;;
72720;SDS011;60835;50.974;10.322;2023-02-28T15:21:11;10.75;;;6.05;;
72720;SDS011;60835;50.974;10.322;2023-02-28T15:23:45;12.93;;;6.50;;
72720;SDS011;60835;50.974;10.322;2023-02-28T15:26:16;14.00;;;6.20;;
72720;SDS011;60835;50.974;10.322;2023-02-28T15:28:45;13.25;;;6.45;;
72720;SDS011;60835;50.974;10.322;2023-02-28T15:31:23;17.85;;;6.85;;
72720;SDS011;60835;50.974;10.322;2023-02-28T15:34:05;11.73;;;6.47;;
72720;SDS011;60835;50.974;10.322;2023-02-28T15:36:33;28.38;;;13.52;;
72720;SDS011;60835;50.974;10.322;2023-02-28T15:39:16;52.38;;;22.33;;
72720;SDS011;60835;50.974;10.322;2023-02-28T15:41:45;20.83;;;9.35;;
72720;SDS011;60835;50.974;10.322;2023-02-28T15:44:24;13.77;;;6.78;;
72720;SDS011;60835;50.974;10.322;2023-02-28T15:46:54;15.32;;;9.15;;
72720;SDS011;60835;50.974;10.322;2023-02-28T15:49:21;13.10;;;7.20;;
72720;SDS011;60835;50.974;10.322;2023-02-28T15:51:50;12.65;;;7.13;;
72720;SDS011;60835;50.974;10.322;2023-02-28T15:54:24;13.77;;;7.63;;
72720;SDS011;60835;50.974;10.322;2023-02-28T15:56:56;13.82;;;7.28;;
72720;SDS011;60835;50.974;10.322;2023-02-28T15:59:29;16.40;;;7.57;;
72720;SDS011;60835;50.974;10.322;2023-02-28T16:04:57;13.32;;;7.55;;
72720;SDS011;60835;50.974;10.322;2023-02-28T16:07:44;14.55;;;7.90;;
72720;SDS011;60835;50.974;10.322;2023-02-28T16:10:11;15.65;;;6.82;;
72720;SDS011;60835;50.974;10.322;2023-02-28T16:12:40;15.05;;;9.02;;
72720;SDS011;60835;50.974;10.322;2023-02-28T16:15:29;11.40;;;6.63;;
72720;SDS011;60835;50.974;10.322;2023-02-28T16:17:56;16.02;;;8.35;;
72720;SDS011;60835;50.974;10.322;2023-02-28T16:20:25;68.72;;;25.77;;
72720;SDS011;60835;50.974;10.322;2023-02-28T16:22:52;16.88;;;9.52;;
72720;SDS011;60835;50.974;10.322;2023-02-28T16:25:20;14.82;;;8.65;;
72720;SDS011;60835;50.974;10.322;2023-02-28T16:27:50;15.18;;;7.60;;
72720;SDS011;60835;50.974;10.322;2023-02-28T16:30:20;11.50;;;7.07;;
72720;SDS011;60835;50.974;10.322;2023-02-28T16:32:49;14.00;;;7.25;;
72720;SDS011;60835;50.974;10.322;2023-02-28T16:35:16;14.05;;;6.90;;
72720;SDS011;60835;50.974;10.322;2023-02-28T16:37:44;12.55;;;6.97;;
72720;SDS011;60835;50.974;10.322;2023-02-28T16:40:15;16.58;;;8.02;;
72720;SDS011;60835;50.974;10.322;2023-02-28T16:42:43;14.27;;;7.93;;
72720;SDS011;60835;50.974;10.322;2023-02-28T16:45:15;18.92;;;8.35;;
72720;SDS011;60835;50.974;10.322;2023-02-28T16:47:45;14.73;;;7.50;;
72720;SDS011;60835;50.974;10.322;2023-02-28T16:50:14;15.20;;;7.45;;
72720;SDS011;60835;50.974;10.322;2023-02-28T16:52:41;16.52;;;7.60;;
72720;SDS011;60835;50.974;10.322;2023-02-28T16:55:08;12.43;;;7.63;;
72720;SDS011;60835;50.974;10.322;2023-02-28T16:57:37;13.60;;;6.97;;
72720;SDS011;60835;50.974;10.322;2023-02-28T17:00:05;13.88;;;7.82;;
72720;SDS011;60835;50.974;10.322;2023-02-28T17:02:34;14.43;;;7.65;;
72720;SDS011;60835;50.974;10.322;2023-02-28T17:05:01;15.80;;;8.05;;